Skip Navigation

Christman Field Latest Observations

Switch to metric unitsOther observation timesWeekly graphs

Date Time
MST
Temp
°F
RH
%
DewPt
°F
Wind
mph
Dir
°
Gust
mph
Dir
°
Press
in Hg
Solar
W/m^2
Prec
in
2017-12-17 11:55 33.3 67.6 23.7 8.2 11.2 24.785 219.4 0.00
2017-12-17 11:50 33.1 69.3 24.2 8.4 10.9 24.788 195.5 0.00
2017-12-17 11:45 33.0 72.0 25.0 8.0 11.0 24.790 171.5 0.00
2017-12-17 11:40 33.1 69.8 24.3 6.0 8.7 24.792 165.2 0.00
2017-12-17 11:35 32.9 69.7 24.1 6.2 8.9 24.792 177.9 0.00
2017-12-17 11:30 32.9 71.8 24.8 6.4 9.9 24.794 183.5 0.00
2017-12-17 11:25 32.7 72.1 24.7 6.7 9.7 24.795 184.3 0.00
2017-12-17 11:20 32.7 70.8 24.3 8.2 10.0 24.798 177.8 0.00
2017-12-17 11:15 32.5 73.6 25.0 8.1 11.4 24.801 189.2 0.00
2017-12-17 11:10 32.2 72.7 24.5 8.8 11.1 24.805 181.6 0.00
2017-12-17 11:05 32.2 74.1 24.9 9.3 11.5 24.806 162.8 0.00
2017-12-17 11:00 32.4 74.0 25.0 8.5 11.5 24.809 150.2 0.00
2017-12-17 10:55 32.4 76.1 25.7 7.4 9.1 24.812 154.2 0.00
2017-12-17 10:50 32.6 74.5 25.4 7.5 9.5 24.815 163.5 0.00
2017-12-17 10:45 32.6 75.5 25.7 6.6 10.2 24.815 212.4 0.00
2017-12-17 10:40 32.6 77.5 26.3 6.7 9.6 24.816 248.9 0.00
2017-12-17 10:35 32.5 78.7 26.6 6.9 9.0 24.819 247.4 0.00
2017-12-17 10:30 32.1 78.5 26.2 5.9 8.8 24.823 205.9 0.00
2017-12-17 10:25 32.0 78.5 26.1 7.3 10.0 24.824 211.7 0.00
2017-12-17 10:20 31.9 79.5 26.3 7.3 10.1 24.827 209.2 0.00
2017-12-17 10:15 31.9 80.3 26.5 7.7 11.0 24.830 215.5 0.00
2017-12-17 10:10 31.8 80.9 26.6 7.5 10.7 24.831 224.2 0.00
2017-12-17 10:05 31.8 80.2 26.4 7.0 9.7 24.831 227.5 0.00
2017-12-17 10:00 32.0 80.7 26.7 7.4 11.4 24.830 246.9 0.00
2017-12-17 09:55 31.9 83.2 27.3 7.2 11.7 24.832 254.4 0.00
2017-12-17 09:50 31.8 82.4 27.1 6.5 10.2 24.832 254.0 0.00
2017-12-17 09:45 31.5 84.4 27.4 6.1 8.2 24.833 252.6 0.00
2017-12-17 09:40 31.1 85.8 27.3 6.5 9.4 24.834 229.1 0.00
2017-12-17 09:35 31.0 85.5 27.1 6.6 9.0 24.833 217.0 0.00
2017-12-17 09:30 30.6 86.6 27.1 6.4 8.6 24.835 230.3 0.00